Terminal Aerodrome Forecast
Issued by NWS

Home | Current Version | Previous Version | Text Only | Print | Product List | Glossary On
Versions: 1 2 3 4 5 6 7 8 9 10 11 12 13 14 15 16 17 18 19 20
000
FTUS43 KEAX 251700
TAFSTJ
TAF
KSTJ 251738Z 2518/2618 18018G28KT P6SM FEW250
     FM252300 17012G18KT P6SM SCT200
     FM260800 19010KT P6SM SCT150
     FM261600 33009KT P6SM SCT020 BKN150=

USA.gov is the U.S. government's official web portal to all federal, state and local government web resources and services.